Pagina principale
METAR-TAF:

METAR-TAF

Aeroporti :

Aeroporto di Melbourne

Melbourne, Australia

latitudine: 37-40-24S, longitudine: 144-50-36E, altezza: 132 m

Osservazione

Il bollettino è stato emesso 27 minuti fa, alle 16:30 UTC
Vento 9 kt da nord
Temperature 4°C
Umidità 93%
Pressione 1028 hPa
Visibilità 10 km o più
nessuna nube inferiore a 1500 m e nessun cumulonembo

METAR: YMML 201630Z 36009KT CAVOK 04/03 Q1028 NOSIG

Ora: 02:57 (16:57 UTC)

Previsione

Il bollettino è stato emesso 5 ore e 39 minuti fa, alle 11:18 UTC
Previsione valida dal 20 alle 12 UTC al 21 alle 18 UTC
Vento 10 kt da nord
Visibilità 10 km o più
nessuna nube inferiore a 1500 m e nessun cumulonembo

TAF: YMML 201118Z 2012/2118 36010KT CAVOK

Osservazioni e previsioni meteorologiche di più di 4000 aeroporti (messaggi METAR e TAF).

Le stazioni disponibili sono rappresentate dai dischi gialli e rossi sulla carta.

Puntare il mouse per vedere il nome della stazione.

Clicca sopra per visualizzare le osservazioni e previsioni meteorologiche.

Per cambiare la mappa : fare clic sui pulsanti verdi con una croce nera per ingrandire, il pulsante verde con un trattino per diminuire, o sulla freccia verde per le mappe adiacenti.


METAR-TAF: